sensor_id;sensor_type;location;lat;lon;timestamp;P1;durP1;ratioP1;P2;durP2;ratioP2
65130;SDS011;51709;54.912;8.316;2022-12-01T00:03:08;28.55;;;15.30;;
65130;SDS011;51709;54.912;8.316;2022-12-01T00:08:29;37.92;;;17.55;;
65130;SDS011;51709;54.912;8.316;2022-12-01T00:13:50;34.03;;;17.50;;
65130;SDS011;51709;54.912;8.316;2022-12-01T00:19:10;36.42;;;17.15;;
65130;SDS011;51709;54.912;8.316;2022-12-01T00:24:30;41.78;;;17.75;;
65130;SDS011;51709;54.912;8.316;2022-12-01T00:29:51;37.63;;;18.63;;
65130;SDS011;51709;54.912;8.316;2022-12-01T00:35:11;36.00;;;17.30;;
65130;SDS011;51709;54.912;8.316;2022-12-01T00:40:33;39.05;;;15.68;;
65130;SDS011;51709;54.912;8.316;2022-12-01T00:45:54;33.95;;;16.52;;
65130;SDS011;51709;54.912;8.316;2022-12-01T00:51:18;33.08;;;16.77;;
65130;SDS011;51709;54.912;8.316;2022-12-01T00:56:39;35.78;;;16.80;;
65130;SDS011;51709;54.912;8.316;2022-12-01T01:02:00;32.20;;;13.55;;
65130;SDS011;51709;54.912;8.316;2022-12-01T01:07:21;32.80;;;15.10;;
65130;SDS011;51709;54.912;8.316;2022-12-01T01:12:42;36.28;;;15.73;;
65130;SDS011;51709;54.912;8.316;2022-12-01T01:18:03;31.55;;;16.33;;
65130;SDS011;51709;54.912;8.316;2022-12-01T01:23:25;33.45;;;14.57;;
65130;SDS011;51709;54.912;8.316;2022-12-01T01:28:46;36.13;;;16.42;;
65130;SDS011;51709;54.912;8.316;2022-12-01T01:34:07;35.17;;;16.05;;
65130;SDS011;51709;54.912;8.316;2022-12-01T01:39:28;32.75;;;15.20;;
65130;SDS011;51709;54.912;8.316;2022-12-01T01:50:16;37.90;;;15.93;;
65130;SDS011;51709;54.912;8.316;2022-12-01T01:55:39;32.27;;;15.23;;
65130;SDS011;51709;54.912;8.316;2022-12-01T02:01:00;33.30;;;14.90;;
65130;SDS011;51709;54.912;8.316;2022-12-01T02:06:21;31.42;;;15.88;;
65130;SDS011;51709;54.912;8.316;2022-12-01T02:11:50;35.85;;;15.80;;
65130;SDS011;51709;54.912;8.316;2022-12-01T02:17:29;35.28;;;14.18;;
65130;SDS011;51709;54.912;8.316;2022-12-01T02:28:29;31.87;;;15.57;;
65130;SDS011;51709;54.912;8.316;2022-12-01T02:34:13;32.15;;;15.77;;
65130;SDS011;51709;54.912;8.316;2022-12-01T02:39:43;35.50;;;15.82;;
65130;SDS011;51709;54.912;8.316;2022-12-01T02:51:22;31.92;;;14.25;;
65130;SDS011;51709;54.912;8.316;2022-12-01T02:56:52;28.67;;;13.82;;
65130;SDS011;51709;54.912;8.316;2022-12-01T03:02:18;30.60;;;11.47;;
65130;SDS011;51709;54.912;8.316;2022-12-01T03:14:06;34.40;;;15.45;;
65130;SDS011;51709;54.912;8.316;2022-12-01T03:19:52;34.88;;;15.73;;
65130;SDS011;51709;54.912;8.316;2022-12-01T03:25:20;38.93;;;16.37;;
65130;SDS011;51709;54.912;8.316;2022-12-01T03:30:45;38.83;;;15.23;;
65130;SDS011;51709;54.912;8.316;2022-12-01T03:36:12;31.25;;;13.95;;
65130;SDS011;51709;54.912;8.316;2022-12-01T03:41:58;36.92;;;16.63;;
65130;SDS011;51709;54.912;8.316;2022-12-01T03:47:25;30.25;;;14.95;;
65130;SDS011;51709;54.912;8.316;2022-12-01T03:58:41;31.83;;;15.35;;
65130;SDS011;51709;54.912;8.316;2022-12-01T04:04:07;33.03;;;14.90;;
65130;SDS011;51709;54.912;8.316;2022-12-01T04:09:30;31.58;;;14.38;;
65130;SDS011;51709;54.912;8.316;2022-12-01T04:14:51;29.73;;;15.48;;
65130;SDS011;51709;54.912;8.316;2022-12-01T04:20:12;31.33;;;16.02;;
65130;SDS011;51709;54.912;8.316;2022-12-01T04:25:35;35.60;;;14.73;;
65130;SDS011;51709;54.912;8.316;2022-12-01T04:30:55;31.73;;;13.70;;
65130;SDS011;51709;54.912;8.316;2022-12-01T04:36:16;30.85;;;14.82;;
65130;SDS011;51709;54.912;8.316;2022-12-01T04:41:36;33.10;;;15.20;;
65130;SDS011;51709;54.912;8.316;2022-12-01T04:46:57;34.75;;;14.93;;
65130;SDS011;51709;54.912;8.316;2022-12-01T04:52:18;34.20;;;15.13;;
65130;SDS011;51709;54.912;8.316;2022-12-01T04:57:38;39.90;;;15.52;;
65130;SDS011;51709;54.912;8.316;2022-12-01T05:03:00;31.52;;;14.85;;
65130;SDS011;51709;54.912;8.316;2022-12-01T05:08:21;33.83;;;15.35;;
65130;SDS011;51709;54.912;8.316;2022-12-01T05:13:42;28.30;;;13.73;;
65130;SDS011;51709;54.912;8.316;2022-12-01T05:19:05;32.22;;;13.20;;
65130;SDS011;51709;54.912;8.316;2022-12-01T05:24:44;31.13;;;14.50;;
65130;SDS011;51709;54.912;8.316;2022-12-01T05:30:05;32.95;;;15.10;;
65130;SDS011;51709;54.912;8.316;2022-12-01T05:35:26;35.67;;;16.85;;
65130;SDS011;51709;54.912;8.316;2022-12-01T05:40:53;32.15;;;15.70;;
65130;SDS011;51709;54.912;8.316;2022-12-01T05:46:15;25.98;;;13.52;;
65130;SDS011;51709;54.912;8.316;2022-12-01T05:51:36;31.80;;;14.57;;
65130;SDS011;51709;54.912;8.316;2022-12-01T05:56:56;32.72;;;15.27;;
65130;SDS011;51709;54.912;8.316;2022-12-01T06:02:17;33.63;;;14.35;;
65130;SDS011;51709;54.912;8.316;2022-12-01T06:07:37;33.33;;;14.80;;
65130;SDS011;51709;54.912;8.316;2022-12-01T06:12:59;32.95;;;14.18;;
65130;SDS011;51709;54.912;8.316;2022-12-01T06:18:20;32.00;;;16.20;;
65130;SDS011;51709;54.912;8.316;2022-12-01T06:23:41;34.58;;;14.98;;
65130;SDS011;51709;54.912;8.316;2022-12-01T06:29:01;33.55;;;14.68;;
65130;SDS011;51709;54.912;8.316;2022-12-01T06:34:22;37.15;;;14.35;;
65130;SDS011;51709;54.912;8.316;2022-12-01T06:39:42;35.20;;;16.02;;
65130;SDS011;51709;54.912;8.316;2022-12-01T06:45:03;37.85;;;16.95;;
65130;SDS011;51709;54.912;8.316;2022-12-01T06:50:24;33.13;;;15.77;;
65130;SDS011;51709;54.912;8.316;2022-12-01T06:55:45;36.25;;;15.63;;
65130;SDS011;51709;54.912;8.316;2022-12-01T07:01:07;34.75;;;16.13;;
65130;SDS011;51709;54.912;8.316;2022-12-01T07:06:29;34.58;;;14.90;;
65130;SDS011;51709;54.912;8.316;2022-12-01T07:11:50;38.15;;;15.63;;
65130;SDS011;51709;54.912;8.316;2022-12-01T07:17:11;37.25;;;16.48;;
65130;SDS011;51709;54.912;8.316;2022-12-01T07:22:32;30.55;;;15.00;;
65130;SDS011;51709;54.912;8.316;2022-12-01T07:27:52;33.75;;;15.48;;
65130;SDS011;51709;54.912;8.316;2022-12-01T07:33:14;34.03;;;15.38;;
65130;SDS011;51709;54.912;8.316;2022-12-01T07:38:35;35.92;;;15.07;;
65130;SDS011;51709;54.912;8.316;2022-12-01T07:43:57;34.05;;;15.05;;
65130;SDS011;51709;54.912;8.316;2022-12-01T07:49:18;37.05;;;16.73;;
65130;SDS011;51709;54.912;8.316;2022-12-01T07:54:39;34.03;;;14.50;;
65130;SDS011;51709;54.912;8.316;2022-12-01T07:59:59;39.40;;;16.08;;
65130;SDS011;51709;54.912;8.316;2022-12-01T08:05:31;37.72;;;16.05;;
65130;SDS011;51709;54.912;8.316;2022-12-01T08:10:51;30.55;;;14.48;;
65130;SDS011;51709;54.912;8.316;2022-12-01T08:16:13;29.55;;;13.75;;
65130;SDS011;51709;54.912;8.316;2022-12-01T08:21:35;29.02;;;13.95;;
65130;SDS011;51709;54.912;8.316;2022-12-01T08:26:57;23.98;;;13.65;;
65130;SDS011;51709;54.912;8.316;2022-12-01T08:32:17;25.02;;;13.35;;
65130;SDS011;51709;54.912;8.316;2022-12-01T08:37:38;35.30;;;14.20;;
65130;SDS011;51709;54.912;8.316;2022-12-01T08:42:58;29.10;;;14.00;;
65130;SDS011;51709;54.912;8.316;2022-12-01T08:48:19;30.52;;;13.60;;
65130;SDS011;51709;54.912;8.316;2022-12-01T08:53:42;30.90;;;14.43;;
65130;SDS011;51709;54.912;8.316;2022-12-01T08:59:05;30.38;;;14.95;;
65130;SDS011;51709;54.912;8.316;2022-12-01T09:04:26;27.90;;;13.93;;
65130;SDS011;51709;54.912;8.316;2022-12-01T09:09:47;28.42;;;14.90;;
65130;SDS011;51709;54.912;8.316;2022-12-01T09:15:08;27.65;;;13.50;;
65130;SDS011;51709;54.912;8.316;2022-12-01T09:20:29;31.10;;;13.70;;
65130;SDS011;51709;54.912;8.316;2022-12-01T09:25:50;27.88;;;12.80;;
65130;SDS011;51709;54.912;8.316;2022-12-01T09:31:11;34.05;;;14.70;;
65130;SDS011;51709;54.912;8.316;2022-12-01T09:36:33;30.75;;;13.43;;
65130;SDS011;51709;54.912;8.316;2022-12-01T09:42:02;31.42;;;13.55;;
65130;SDS011;51709;54.912;8.316;2022-12-01T09:47:34;24.90;;;12.82;;
65130;SDS011;51709;54.912;8.316;2022-12-01T09:53:01;32.60;;;14.35;;
65130;SDS011;51709;54.912;8.316;2022-12-01T09:58:25;33.63;;;14.65;;
65130;SDS011;51709;54.912;8.316;2022-12-01T10:03:52;30.33;;;13.40;;
65130;SDS011;51709;54.912;8.316;2022-12-01T10:09:24;26.75;;;12.15;;
65130;SDS011;51709;54.912;8.316;2022-12-01T10:14:52;25.17;;;10.88;;
65130;SDS011;51709;54.912;8.316;2022-12-01T10:20:25;26.70;;;12.25;;
65130;SDS011;51709;54.912;8.316;2022-12-01T10:37:15;25.53;;;11.67;;
65130;SDS011;51709;54.912;8.316;2022-12-01T10:42:42;22.17;;;11.52;;
65130;SDS011;51709;54.912;8.316;2022-12-01T10:48:06;24.70;;;11.90;;
65130;SDS011;51709;54.912;8.316;2022-12-01T10:53:31;22.60;;;11.10;;
65130;SDS011;51709;54.912;8.316;2022-12-01T10:58:53;24.73;;;11.82;;
65130;SDS011;51709;54.912;8.316;2022-12-01T11:15:48;29.40;;;13.77;;
65130;SDS011;51709;54.912;8.316;2022-12-01T11:21:15;28.08;;;13.23;;
65130;SDS011;51709;54.912;8.316;2022-12-01T11:26:45;28.95;;;13.63;;
65130;SDS011;51709;54.912;8.316;2022-12-01T11:32:16;25.13;;;12.48;;
65130;SDS011;51709;54.912;8.316;2022-12-01T11:37:42;28.80;;;12.70;;
65130;SDS011;51709;54.912;8.316;2022-12-01T11:43:29;31.17;;;12.90;;
65130;SDS011;51709;54.912;8.316;2022-12-01T11:48:57;35.30;;;13.00;;
65130;SDS011;51709;54.912;8.316;2022-12-01T11:54:23;23.88;;;12.32;;
65130;SDS011;51709;54.912;8.316;2022-12-01T11:59:45;28.83;;;12.98;;
65130;SDS011;51709;54.912;8.316;2022-12-01T12:45:50;27.27;;;13.65;;
65130;SDS011;51709;54.912;8.316;2022-12-01T12:51:18;32.17;;;16.67;;
65130;SDS011;51709;54.912;8.316;2022-12-01T12:56:45;33.50;;;16.35;;
65130;SDS011;51709;54.912;8.316;2022-12-01T13:02:13;31.23;;;14.65;;
65130;SDS011;51709;54.912;8.316;2022-12-01T13:08:02;40.28;;;15.70;;
65130;SDS011;51709;54.912;8.316;2022-12-01T13:13:43;33.45;;;15.77;;
65130;SDS011;51709;54.912;8.316;2022-12-01T13:19:15;32.60;;;15.63;;
65130;SDS011;51709;54.912;8.316;2022-12-01T13:24:40;38.10;;;15.15;;
65130;SDS011;51709;54.912;8.316;2022-12-01T13:30:02;35.25;;;14.32;;
65130;SDS011;51709;54.912;8.316;2022-12-01T13:35:28;31.38;;;13.80;;
65130;SDS011;51709;54.912;8.316;2022-12-01T13:47:02;28.30;;;13.93;;
65130;SDS011;51709;54.912;8.316;2022-12-01T13:52:47;33.33;;;14.98;;
65130;SDS011;51709;54.912;8.316;2022-12-01T14:03:37;26.88;;;13.48;;
65130;SDS011;51709;54.912;8.316;2022-12-01T14:08:59;27.55;;;13.80;;
65130;SDS011;51709;54.912;8.316;2022-12-01T14:14:24;28.15;;;13.48;;
65130;SDS011;51709;54.912;8.316;2022-12-01T14:19:48;35.22;;;16.55;;
65130;SDS011;51709;54.912;8.316;2022-12-01T14:36:11;28.52;;;13.30;;
65130;SDS011;51709;54.912;8.316;2022-12-01T14:41:40;23.30;;;13.27;;
65130;SDS011;51709;54.912;8.316;2022-12-01T14:52:36;29.45;;;15.00;;
65130;SDS011;51709;54.912;8.316;2022-12-01T14:58:05;28.08;;;14.45;;
65130;SDS011;51709;54.912;8.316;2022-12-01T15:03:32;22.13;;;13.15;;
65130;SDS011;51709;54.912;8.316;2022-12-01T15:14:53;23.65;;;12.32;;
65130;SDS011;51709;54.912;8.316;2022-12-01T15:20:27;23.25;;;12.50;;
65130;SDS011;51709;54.912;8.316;2022-12-01T15:25:50;25.40;;;13.10;;
65130;SDS011;51709;54.912;8.316;2022-12-01T15:31:11;22.92;;;11.75;;
65130;SDS011;51709;54.912;8.316;2022-12-01T15:36:33;27.58;;;14.27;;
65130;SDS011;51709;54.912;8.316;2022-12-01T15:41:56;29.70;;;15.20;;
65130;SDS011;51709;54.912;8.316;2022-12-01T15:53:05;22.15;;;12.30;;
65130;SDS011;51709;54.912;8.316;2022-12-01T15:58:41;28.23;;;13.70;;
65130;SDS011;51709;54.912;8.316;2022-12-01T16:04:05;22.88;;;11.32;;
65130;SDS011;51709;54.912;8.316;2022-12-01T16:09:40;23.80;;;12.20;;
65130;SDS011;51709;54.912;8.316;2022-12-01T16:20:33;28.38;;;13.25;;
65130;SDS011;51709;54.912;8.316;2022-12-01T16:25:58;27.23;;;13.23;;
65130;SDS011;51709;54.912;8.316;2022-12-01T16:31:21;27.45;;;13.15;;
65130;SDS011;51709;54.912;8.316;2022-12-01T16:36:45;25.93;;;12.80;;
65130;SDS011;51709;54.912;8.316;2022-12-01T16:42:08;20.98;;;11.18;;
65130;SDS011;51709;54.912;8.316;2022-12-01T16:47:31;23.88;;;11.65;;
65130;SDS011;51709;54.912;8.316;2022-12-01T16:52:51;26.50;;;12.05;;
65130;SDS011;51709;54.912;8.316;2022-12-01T16:58:12;21.38;;;12.02;;
65130;SDS011;51709;54.912;8.316;2022-12-01T17:03:33;23.67;;;11.45;;
65130;SDS011;51709;54.912;8.316;2022-12-01T17:08:55;17.75;;;10.38;;
65130;SDS011;51709;54.912;8.316;2022-12-01T17:14:16;21.67;;;10.90;;
65130;SDS011;51709;54.912;8.316;2022-12-01T17:19:36;17.52;;;9.77;;
65130;SDS011;51709;54.912;8.316;2022-12-01T17:24:57;24.20;;;9.88;;
65130;SDS011;51709;54.912;8.316;2022-12-01T17:30:18;18.90;;;10.57;;
65130;SDS011;51709;54.912;8.316;2022-12-01T17:35:39;26.10;;;10.82;;
65130;SDS011;51709;54.912;8.316;2022-12-01T17:41:04;24.05;;;11.38;;
65130;SDS011;51709;54.912;8.316;2022-12-01T17:46:26;19.92;;;9.77;;
65130;SDS011;51709;54.912;8.316;2022-12-01T17:51:47;20.45;;;12.00;;
65130;SDS011;51709;54.912;8.316;2022-12-01T17:57:08;21.73;;;10.00;;
65130;SDS011;51709;54.912;8.316;2022-12-01T18:02:29;21.38;;;11.35;;
65130;SDS011;51709;54.912;8.316;2022-12-01T18:07:50;23.33;;;11.25;;
65130;SDS011;51709;54.912;8.316;2022-12-01T18:13:10;19.80;;;10.75;;
65130;SDS011;51709;54.912;8.316;2022-12-01T18:18:31;21.35;;;11.95;;
65130;SDS011;51709;54.912;8.316;2022-12-01T18:23:55;16.90;;;9.88;;
65130;SDS011;51709;54.912;8.316;2022-12-01T18:29:18;23.00;;;11.73;;
65130;SDS011;51709;54.912;8.316;2022-12-01T18:34:45;22.23;;;11.63;;
65130;SDS011;51709;54.912;8.316;2022-12-01T18:40:06;19.35;;;11.30;;
65130;SDS011;51709;54.912;8.316;2022-12-01T18:45:27;21.45;;;10.65;;
65130;SDS011;51709;54.912;8.316;2022-12-01T18:50:48;23.05;;;10.93;;
65130;SDS011;51709;54.912;8.316;2022-12-01T18:56:14;23.00;;;11.73;;
65130;SDS011;51709;54.912;8.316;2022-12-01T19:01:40;24.60;;;12.32;;
65130;SDS011;51709;54.912;8.316;2022-12-01T19:07:03;30.73;;;13.05;;
65130;SDS011;51709;54.912;8.316;2022-12-01T19:12:24;21.98;;;11.23;;
65130;SDS011;51709;54.912;8.316;2022-12-01T19:17:44;23.38;;;12.60;;
65130;SDS011;51709;54.912;8.316;2022-12-01T19:23:05;28.20;;;13.25;;
65130;SDS011;51709;54.912;8.316;2022-12-01T19:28:27;29.10;;;13.73;;
65130;SDS011;51709;54.912;8.316;2022-12-01T19:33:48;32.08;;;13.77;;
65130;SDS011;51709;54.912;8.316;2022-12-01T19:39:09;24.15;;;12.52;;
65130;SDS011;51709;54.912;8.316;2022-12-01T19:44:30;29.92;;;13.52;;
65130;SDS011;51709;54.912;8.316;2022-12-01T19:49:51;29.85;;;13.15;;
65130;SDS011;51709;54.912;8.316;2022-12-01T19:55:11;33.15;;;13.63;;
65130;SDS011;51709;54.912;8.316;2022-12-01T20:00:32;31.75;;;14.55;;
65130;SDS011;51709;54.912;8.316;2022-12-01T20:05:53;32.28;;;14.85;;
65130;SDS011;51709;54.912;8.316;2022-12-01T20:11:13;34.42;;;13.85;;
65130;SDS011;51709;54.912;8.316;2022-12-01T20:16:35;29.73;;;13.98;;
65130;SDS011;51709;54.912;8.316;2022-12-01T20:21:55;31.08;;;15.18;;
65130;SDS011;51709;54.912;8.316;2022-12-01T20:27:16;34.72;;;13.80;;
65130;SDS011;51709;54.912;8.316;2022-12-01T20:32:37;39.92;;;16.17;;
65130;SDS011;51709;54.912;8.316;2022-12-01T20:37:57;40.63;;;19.08;;
65130;SDS011;51709;54.912;8.316;2022-12-01T20:43:18;41.80;;;18.95;;
65130;SDS011;51709;54.912;8.316;2022-12-01T20:48:38;36.70;;;15.88;;
65130;SDS011;51709;54.912;8.316;2022-12-01T20:54:00;41.38;;;19.88;;
65130;SDS011;51709;54.912;8.316;2022-12-01T20:59:41;37.53;;;17.58;;
65130;SDS011;51709;54.912;8.316;2022-12-01T21:05:02;39.67;;;17.90;;
65130;SDS011;51709;54.912;8.316;2022-12-01T21:10:22;37.42;;;17.98;;
65130;SDS011;51709;54.912;8.316;2022-12-01T21:15:53;37.92;;;17.30;;
65130;SDS011;51709;54.912;8.316;2022-12-01T21:29:17;45.15;;;19.25;;
65130;SDS011;51709;54.912;8.316;2022-12-01T21:34:38;45.03;;;19.17;;
65130;SDS011;51709;54.912;8.316;2022-12-01T21:39:59;41.47;;;19.02;;
65130;SDS011;51709;54.912;8.316;2022-12-01T21:45:27;47.85;;;19.60;;
65130;SDS011;51709;54.912;8.316;2022-12-01T21:51:01;41.67;;;18.95;;
65130;SDS011;51709;54.912;8.316;2022-12-01T21:56:31;44.83;;;20.25;;
65130;SDS011;51709;54.912;8.316;2022-12-01T22:01:53;49.72;;;22.40;;
65130;SDS011;51709;54.912;8.316;2022-12-01T22:07:16;49.15;;;20.70;;
65130;SDS011;51709;54.912;8.316;2022-12-01T22:12:37;51.25;;;23.50;;
65130;SDS011;51709;54.912;8.316;2022-12-01T22:17:57;54.85;;;22.30;;
65130;SDS011;51709;54.912;8.316;2022-12-01T22:23:18;46.53;;;20.58;;
65130;SDS011;51709;54.912;8.316;2022-12-01T22:28:39;49.55;;;21.63;;
65130;SDS011;51709;54.912;8.316;2022-12-01T22:34:00;52.40;;;22.70;;
65130;SDS011;51709;54.912;8.316;2022-12-01T22:39:29;44.22;;;22.95;;
65130;SDS011;51709;54.912;8.316;2022-12-01T22:44:53;47.33;;;21.52;;
65130;SDS011;51709;54.912;8.316;2022-12-01T22:50:31;46.42;;;19.95;;
65130;SDS011;51709;54.912;8.316;2022-12-01T22:55:53;41.25;;;19.40;;
65130;SDS011;51709;54.912;8.316;2022-12-01T23:01:23;40.50;;;19.52;;
65130;SDS011;51709;54.912;8.316;2022-12-01T23:17:32;42.42;;;19.55;;
65130;SDS011;51709;54.912;8.316;2022-12-01T23:22:55;44.58;;;20.70;;
65130;SDS011;51709;54.912;8.316;2022-12-01T23:28:16;43.65;;;19.15;;
65130;SDS011;51709;54.912;8.316;2022-12-01T23:33:38;36.58;;;17.52;;
65130;SDS011;51709;54.912;8.316;2022-12-01T23:39:00;40.22;;;17.17;;
65130;SDS011;51709;54.912;8.316;2022-12-01T23:50:01;30.48;;;16.02;;
65130;SDS011;51709;54.912;8.316;2022-12-01T23:55:26;34.45;;;16.70;;
